Time;durP1;ratioP1;P1;durP2;ratioP2;P2;SDS_P1;SDS_P2;PMS_P1;PMS_P2;Temp;Humidity;BMP_temperature;BMP_pressure;BME280_temperature;BME280_humidity;BME280_pressure;Samples;Min_cycle;Max_cycle;Signal;HPM_P1;HPM_P2
2021/05/11 00:00:35;;;;;;;3.10;1.42;;;;;;;15.28;60.66;100857.22;5134835;27;20058;-38
2021/05/11 00:03:01;;;;;;;;;;;;;;;15.45;58.54;100862.50;5138150;27;20054;-38
2021/05/11 00:05:27;;;;;;;5.55;1.52;;;;;;;15.25;59.37;100852.28;5138503;27;19981;-38
2021/05/11 00:07:53;;;;;;;5.60;1.65;;;;;;;15.21;59.93;100859.31;5137606;27;20042;-38
2021/05/11 00:10:19;;;;;;;2.20;1.05;;;;;;;15.14;60.05;100837.78;5137627;27;20027;-38
2021/05/11 00:12:44;;;;;;;3.80;1.50;;;;;;;15.19;60.45;100847.88;5137492;27;20030;-38
2021/05/11 00:15:10;;;;;;;4.20;1.20;;;;;;;15.23;60.74;100848.19;5137519;27;20055;-38
2021/05/11 00:17:35;;;;;;;2.45;1.08;;;;;;;15.15;61.38;100849.47;5137340;27;20459;-38
2021/05/11 00:20:01;;;;;;;3.37;1.33;;;;;;;15.13;62.83;100854.38;5137737;27;20023;-38
2021/05/11 00:22:26;;;;;;;4.63;1.43;;;;;;;15.09;61.51;100856.81;5137671;27;20027;-38
2021/05/11 00:24:52;;;;;;;5.45;1.33;;;;;;;15.05;62.06;100854.84;5138051;27;20284;-38
2021/05/11 00:27:17;;;;;;;3.70;1.30;;;;;;;15.02;61.41;100845.28;5137256;27;20055;-38
2021/05/11 00:29:42;;;;;;;3.35;1.50;;;;;;;15.10;60.68;100853.00;5136994;27;20382;-38
2021/05/11 00:32:08;;;;;;;4.03;1.50;;;;;;;15.04;62.46;100858.66;5137452;27;20023;-38
2021/05/11 00:34:33;;;;;;;3.78;1.40;;;;;;;15.00;61.13;100854.81;5137681;27;20459;-38
2021/05/11 00:36:58;;;;;;;7.05;1.65;;;;;;;15.00;61.07;100860.25;5137087;27;20028;-38
2021/05/11 00:39:23;;;;;;;5.00;1.40;;;;;;;15.09;60.26;100861.44;5137569;27;20101;-38
2021/05/11 00:41:49;;;;;;;4.17;2.17;;;;;;;15.03;61.80;100851.56;5137276;27;20032;-38
2021/05/11 00:44:22;;;;;;;4.17;1.43;;;;;;;15.10;60.49;100850.25;5137532;27;20261;-38
2021/05/11 00:46:55;;;;;;;3.45;1.50;;;;;;;14.97;61.43;100853.41;5137183;27;20268;-38
2021/05/11 00:49:21;;;;;;;3.97;1.80;;;;;;;15.02;60.73;100845.28;5136887;27;20080;-38
2021/05/11 00:51:46;;;;;;;5.25;1.70;;;;;;;15.05;61.65;100846.69;5136533;27;20442;-37
2021/05/11 00:54:12;;;;;;;3.50;1.60;;;;;;;15.10;60.71;100841.28;5136987;27;20027;-38
2021/05/11 00:56:38;;;;;;;4.22;1.83;;;;;;;15.06;61.21;100838.25;5137003;27;20027;-38
2021/05/11 00:59:08;;;;;;;8.95;2.17;;;;;;;14.98;61.09;100833.28;5137235;27;20023;-38
2021/05/11 01:01:33;;;;;;;5.57;2.42;;;;;;;15.04;61.58;100843.16;5136339;27;20031;-37
2021/05/11 01:03:58;;;;;;;4.53;2.33;;;;;;;14.95;62.48;100836.53;5136588;27;20106;-38
2021/05/11 01:06:24;;;;;;;6.20;2.30;;;;;;;14.93;62.59;100841.41;5137381;27;20255;-38
2021/05/11 01:08:49;;;;;;;8.87;2.30;;;;;;;14.91;62.82;100836.22;5136504;27;20066;-38
2021/05/11 01:11:14;;;;;;;8.27;2.33;;;;;;;14.78;63.81;100831.22;5137200;27;20030;-38
2021/05/11 01:13:40;;;;;;;7.33;2.83;;;;;;;14.76;63.72;100836.09;5135786;27;20347;-38
2021/05/11 01:16:05;;;;;;;6.37;3.00;;;;;;;14.68;64.34;100828.41;5136593;27;20093;-37
2021/05/11 01:18:33;;;;;;;5.57;2.50;;;;;;;14.65;64.94;100827.03;5136226;27;20035;-37
2021/05/11 01:21:13;;;;;;;7.63;3.08;;;;;;;14.63;65.19;100825.63;5136815;27;20053;-38
2021/05/11 01:24:02;;;;;;;4.90;2.95;;;;;;;14.43;66.29;100815.34;5136165;27;20103;-37
2021/05/11 01:26:30;;;;;;;5.05;2.67;;;;;;;14.55;65.81;100818.78;5136115;27;20027;-37
2021/05/11 01:29:21;;;;;;;6.30;3.10;;;;;;;14.58;66.02;100815.50;5136343;27;20034;-38
2021/05/11 01:48:11;;;;;;;7.50;3.50;;;;;;;14.39;67.17;100804.16;5136049;27;20070;-38
2021/05/11 01:50:47;;;;;;;8.15;3.47;;;;;;;14.39;67.05;100808.78;5135590;27;20114;-38
2021/05/11 02:23:04;;;;;;;6.93;3.25;;;;;;;13.94;69.20;100822.69;5112363;28;20041;-38
2021/05/11 02:25:30;;;;;;;5.95;3.08;;;;;;;13.93;69.03;100829.22;5111837;28;20039;-38
2021/05/11 02:27:55;;;;;;;4.45;2.70;;;;;;;13.90;69.40;100823.19;5112161;28;20471;-38
2021/05/11 02:30:21;;;;;;;9.25;3.60;;;;;;;13.87;69.27;100823.72;5095400;28;20122;-38
2021/05/11 02:32:46;;;;;;;6.18;3.05;;;;;;;13.84;69.60;100834.28;5112186;28;20485;-38
2021/05/11 02:35:14;;;;;;;6.03;3.40;;;;;;;13.81;69.55;100830.19;5112061;28;20044;-38
2021/05/11 02:37:40;;;;;;;5.75;3.03;;;;;;;13.76;69.78;100834.69;5112032;28;20024;-38
2021/05/11 02:40:09;;;;;;;6.30;3.20;;;;;;;13.80;69.40;100827.69;5112426;28;20517;-38
2021/05/11 02:42:35;;;;;;;5.25;2.80;;;;;;;13.84;69.16;100828.84;5134611;27;20035;-38
2021/05/11 02:45:02;;;;;;;5.28;2.95;;;;;;;13.74;69.20;100829.53;5134436;27;20462;-38
2021/05/11 02:47:27;;;;;;;7.50;3.60;;;;;;;13.69;69.68;100826.75;5134759;27;20027;-38
2021/05/11 02:49:53;;;;;;;6.32;2.70;;;;;;;13.81;69.12;100823.88;5135046;27;20088;-38
2021/05/11 02:52:18;;;;;;;5.90;2.92;;;;;;;13.74;68.91;100829.53;5135026;27;20106;-38
2021/05/11 02:54:44;;;;;;;6.63;2.50;;;;;;;13.76;69.06;100827.41;5135237;27;20106;-38
2021/05/11 02:57:09;;;;;;;5.45;3.00;;;;;;;13.74;68.90;100834.97;5134488;27;20272;-38
2021/05/11 02:59:35;;;;;;;9.68;3.30;;;;;;;13.69;68.47;100825.94;5134005;27;20039;-38
2021/05/11 03:02:01;;;;;;;5.15;2.60;;;;;;;13.70;68.74;100833.00;5134340;27;20027;-38
2021/05/11 03:04:26;;;;;;;5.45;2.45;;;;;;;13.81;68.30;100823.88;5134384;27;20381;-38
2021/05/11 03:06:56;;;;;;;6.55;2.60;;;;;;;13.80;68.37;100828.50;5134085;27;20088;-38
2021/05/11 03:09:22;;;;;;;4.82;2.72;;;;;;;13.72;69.31;100830.88;5134307;27;20126;-38
2021/05/11 03:11:48;;;;;;;5.57;2.80;;;;;;;13.79;69.00;100823.34;5134578;27;20106;-38
2021/05/11 03:14:13;;;;;;;4.73;2.60;;;;;;;13.73;69.49;100818.91;5134271;28;20053;-38
2021/05/11 03:16:38;;;;;;;5.07;2.80;;;;;;;13.82;69.25;100837.25;5134806;27;20099;-38
2021/05/11 03:19:04;;;;;;;6.20;3.07;;;;;;;13.80;69.48;100825.78;5134532;27;20019;-38
2021/05/11 03:21:29;;;;;;;5.63;3.10;;;;;;;13.85;69.05;100820.41;5134173;28;20027;-38
2021/05/11 03:23:54;;;;;;;6.80;2.97;;;;;;;13.81;69.26;100821.16;5134460;28;20098;-38
2021/05/11 03:26:19;;;;;;;7.77;3.10;;;;;;;13.74;70.02;100812.41;5134760;28;20059;-38
2021/05/11 03:28:45;;;;;;;9.60;3.40;;;;;;;13.72;69.65;100804.50;5134395;28;20094;-38
2021/05/11 03:31:10;;;;;;;4.93;2.93;;;;;;;13.62;70.52;100810.63;5134703;28;20054;-38
2021/05/11 03:33:36;;;;;;;4.60;2.77;;;;;;;13.73;70.57;100810.75;5134289;28;20308;-38
2021/05/11 03:36:01;;;;;;;5.03;3.00;;;;;;;13.64;70.48;100811.19;5135004;27;20323;-38
2021/05/11 03:38:27;;;;;;;6.57;3.00;;;;;;;13.68;70.26;100807.97;5138195;27;20121;-38
2021/05/11 03:40:53;;;;;;;4.00;2.85;;;;;;;13.64;70.29;100818.53;5138150;27;20257;-38
2021/05/11 03:43:24;;;;;;;5.18;2.88;;;;;;;13.61;70.78;100828.00;5138099;27;20023;-38
2021/05/11 03:46:04;;;;;;;6.15;3.15;;;;;;;13.58;70.16;100820.34;5138836;27;20103;-38
2021/05/11 03:48:29;;;;;;;6.00;2.53;;;;;;;13.57;70.52;100818.72;5137980;27;20035;-38
2021/05/11 03:50:54;;;;;;;4.70;2.90;;;;;;;13.62;70.07;100826.13;5138361;27;20031;-38
2021/05/11 03:53:19;;;;;;;7.40;2.97;;;;;;;13.66;69.74;100827.22;5137966;27;20268;-38
2021/05/11 03:55:45;;;;;;;5.47;3.00;;;;;;;13.56;70.12;100827.91;5137566;27;20023;-38
2021/05/11 03:58:10;;;;;;;4.50;2.77;;;;;;;13.57;69.81;100828.78;5137789;27;20076;-38
2021/05/11 04:00:36;;;;;;;6.43;3.13;;;;;;;13.56;69.58;100827.09;5138029;27;20306;-38
2021/05/11 04:03:01;;;;;;;4.97;2.70;;;;;;;13.46;69.06;100833.22;5137505;27;20035;-38
2021/05/11 04:05:27;;;;;;;7.20;2.93;;;;;;;13.42;69.21;100823.94;5137764;27;20118;-38
2021/05/11 04:07:56;;;;;;;6.83;3.03;;;;;;;13.41;69.33;100825.00;5137606;27;20106;-38
2021/05/11 04:10:42;;;;;;;6.20;2.70;;;;;;;13.40;69.47;100828.78;5137646;27;20287;-38
2021/05/11 04:16:14;;;;;;;4.93;2.83;;;;;;;13.37;69.81;100841.00;5114348;28;20066;-38
2021/05/11 04:18:39;;;;;;;5.30;3.00;;;;;;;13.51;69.19;100843.34;5114448;28;20036;-38
2021/05/11 04:21:05;;;;;;;3.73;2.33;;;;;;;13.50;69.12;100837.09;5114760;28;20040;-38
2021/05/11 04:23:30;;;;;;;5.55;2.90;;;;;;;13.47;69.27;100840.31;5114993;28;20023;-38
2021/05/11 04:25:55;;;;;;;11.25;3.92;;;;;;;13.50;69.35;100850.66;5114570;28;20043;-39
2021/05/11 04:28:21;;;;;;;4.43;2.70;;;;;;;13.49;68.86;100831.91;5114411;28;20490;-38
2021/05/11 04:30:46;;;;;;;5.87;2.90;;;;;;;13.39;69.46;100835.31;5114838;28;20474;-38
2021/05/11 04:33:11;;;;;;;6.53;2.87;;;;;;;13.47;69.59;100834.88;5114695;28;20043;-38
2021/05/11 04:35:37;;;;;;;5.57;2.67;;;;;;;13.50;69.39;100837.09;5114227;28;20394;-38
2021/05/11 04:38:02;;;;;;;5.18;2.75;;;;;;;13.45;69.79;100823.44;5114203;28;20027;-38
2021/05/11 04:40:28;;;;;;;10.17;2.93;;;;;;;13.52;69.70;100825.97;5114893;28;20054;-38
2021/05/11 04:42:53;;;;;;;7.03;3.05;;;;;;;13.50;69.76;100828.13;5114069;28;20269;-38
2021/05/11 04:45:20;;;;;;;5.90;2.28;;;;;;;13.56;69.78;100833.34;5114745;28;20498;-39
2021/05/11 04:47:48;;;;;;;5.57;2.90;;;;;;;13.47;70.18;100834.03;5113939;28;20034;-38
2021/05/11 04:50:23;;;;;;;6.15;3.03;;;;;;;13.42;70.62;100828.53;5114457;28;20104;-38
2021/05/11 04:52:49;;;;;;;4.05;2.17;;;;;;;13.51;70.74;100841.44;5129574;27;20385;-38
2021/05/11 04:55:16;;;;;;;6.53;2.65;;;;;;;13.47;71.23;100839.47;5137288;27;20049;-38
2021/05/11 04:57:42;;;;;;;6.40;3.08;;;;;;;13.41;70.70;100841.28;5137463;27;20474;-38
2021/05/11 05:00:09;;;;;;;7.25;2.85;;;;;;;13.44;70.68;100834.56;5136432;27;20114;-38
2021/05/11 05:02:37;;;;;;;7.85;2.75;;;;;;;13.38;71.62;100831.75;5136553;27;20035;-38
2021/05/11 05:05:03;;;;;;;6.00;2.97;;;;;;;13.48;71.01;100836.53;5136476;27;20520;-38
2021/05/11 05:07:28;;;;;;;7.57;2.95;;;;;;;13.53;70.66;100843.91;5137043;27;20031;-38
2021/05/11 05:09:53;;;;;;;6.03;2.87;;;;;;;13.58;71.29;100844.81;5136555;27;20058;-38
2021/05/11 05:12:19;;;;;;;5.77;2.87;;;;;;;13.60;71.34;100849.97;5136904;27;20053;-38
2021/05/11 05:14:44;;;;;;;7.47;3.00;;;;;;;13.59;70.39;100843.72;5136357;27;20277;-37
2021/05/11 05:17:10;;;;;;;7.53;2.97;;;;;;;13.60;70.49;100845.38;5137061;27;20271;-38
2021/05/11 05:19:35;;;;;;;5.33;2.90;;;;;;;13.57;70.35;100840.47;5136923;27;20028;-38
2021/05/11 05:22:02;;;;;;;6.95;3.03;;;;;;;13.63;69.97;100850.31;5136000;27;20023;-38
2021/05/11 05:29:47;;;;;;;5.78;2.45;;;;;;;13.79;69.45;100847.78;5113500;28;20039;-38
2021/05/11 05:32:13;;;;;;;7.38;2.50;;;;;;;13.82;68.94;100844.59;5113156;28;20127;-38
2021/05/11 05:34:39;;;;;;;6.45;2.65;;;;;;;13.87;69.34;100844.66;5113444;28;20137;-38
2021/05/11 05:37:05;;;;;;;8.15;3.03;;;;;;;13.85;69.11;100841.34;5113445;28;20237;-38
2021/05/11 05:39:42;;;;;;;9.88;3.42;;;;;;;13.93;69.79;100840.91;5113530;28;20110;-38
2021/05/11 05:42:08;;;;;;;6.15;3.03;;;;;;;13.97;69.62;100842.06;5113247;28;20085;-38
2021/05/11 05:44:33;;;;;;;5.90;2.58;;;;;;;14.03;68.92;100842.94;5112929;28;20039;-38
2021/05/11 05:46:59;;;;;;;8.55;3.40;;;;;;;14.04;69.24;100839.13;5112489;28;20548;-38
2021/05/11 05:49:28;;;;;;;7.15;3.53;;;;;;;14.12;68.74;100836.78;5112642;28;20031;-38
2021/05/11 05:52:00;;;;;;;5.03;2.90;;;;;;;14.12;68.76;100823.19;5112722;28;20067;-38
2021/05/11 05:54:25;;;;;;;7.38;3.10;;;;;;;14.16;69.09;100829.78;5112543;28;20053;-38
2021/05/11 05:56:51;;;;;;;6.72;3.15;;;;;;;14.32;68.73;100825.31;5095430;28;20048;-38
2021/05/11 05:59:16;;;;;;;7.63;3.28;;;;;;;14.37;69.43;100825.34;5111640;28;20040;-38
2021/05/11 06:01:41;;;;;;;7.17;3.53;;;;;;;14.42;68.63;100830.03;5112525;28;20067;-38
2021/05/11 06:04:12;;;;;;;5.20;2.87;;;;;;;14.38;67.65;100835.16;5127421;27;20141;-38
2021/05/11 06:06:41;;;;;;;5.75;3.00;;;;;;;14.40;67.79;100826.75;5135894;27;20426;-38
2021/05/11 06:09:18;;;;;;;4.75;2.88;;;;;;;14.49;68.30;100829.84;5135746;27;20023;-38
2021/05/11 06:11:51;;;;;;;5.63;2.92;;;;;;;14.50;67.35;100832.34;5135978;27;20373;-38
2021/05/11 06:19:34;;;;;;;8.50;3.08;;;;;;;14.57;67.21;100832.13;5135655;27;20092;-38
2021/05/11 06:22:00;;;;;;;5.47;3.03;;;;;;;14.59;67.11;100830.78;5135306;27;20442;-38
2021/05/11 06:24:25;;;;;;;6.57;3.13;;;;;;;14.58;67.20;100837.28;5134853;27;20287;-38
2021/05/11 06:26:51;;;;;;;3.93;2.67;;;;;;;14.64;67.89;100841.72;5134757;27;20024;-38
2021/05/11 06:29:18;;;;;;;5.80;3.22;;;;;;;14.65;67.09;100845.25;5134991;27;20076;-38
2021/05/11 06:31:44;;;;;;;8.68;3.05;;;;;;;14.64;67.06;100840.88;5134884;27;20093;-38
2021/05/11 06:34:10;;;;;;;6.30;3.42;;;;;;;14.70;67.67;100841.78;5135109;27;20027;-38
2021/05/11 06:36:36;;;;;;;6.47;3.03;;;;;;;14.73;68.00;100850.22;5135020;27;20045;-38
2021/05/11 06:39:05;;;;;;;6.18;2.95;;;;;;;14.71;66.81;100836.06;5135105;27;20160;-37
2021/05/11 06:41:31;;;;;;;8.48;2.75;;;;;;;14.82;67.37;100840.50;5134954;27;20019;-39
2021/05/11 06:44:02;;;;;;;7.07;2.85;;;;;;;14.81;66.38;100833.41;5135239;27;20030;-38
2021/05/11 06:49:27;;;;;;;5.72;3.15;;;;;;;14.96;65.98;100835.44;5135201;27;20496;-38
2021/05/11 06:54:38;;;;;;;7.85;3.17;;;;;;;15.06;65.50;100834.72;5134106;27;20038;-38
2021/05/11 06:57:07;;;;;;;6.95;2.90;;;;;;;15.20;64.72;100834.00;5134511;27;20019;-38
2021/05/11 06:59:33;;;;;;;8.07;3.25;;;;;;;15.28;65.09;100820.97;5135164;27;20027;-38
2021/05/11 07:02:00;;;;;;;6.43;2.78;;;;;;;15.39;65.14;100818.03;5134082;27;20104;-38
2021/05/11 07:04:26;;;;;;;7.68;3.00;;;;;;;15.42;65.09;100811.22;5134802;27;20116;-38
2021/05/11 07:06:51;;;;;;;7.70;3.38;;;;;;;15.53;63.38;100820.31;5134296;27;20085;-38
2021/05/11 07:09:23;;;;;;;6.72;3.17;;;;;;;15.55;63.11;100818.94;5134430;27;20083;-38
2021/05/11 07:14:15;;;;;;;9.03;3.03;;;;;;;15.59;63.08;100814.59;5134158;27;20031;-38
2021/05/11 07:16:40;;;;;;;;;;;;;;;15.84;63.53;100813.94;5134698;28;20289;-38
2021/05/11 07:19:05;;;;;;;5.27;2.83;;;;;;;15.85;63.01;100803.84;5134771;28;20018;-38
2021/05/11 07:21:31;;;;;;;8.00;3.10;;;;;;;16.03;63.00;100797.09;5134484;28;20106;-38
2021/05/11 07:23:57;;;;;;;9.63;3.23;;;;;;;16.09;62.04;100799.56;5134266;28;20275;-38
2021/05/11 07:29:08;;;;;;;6.63;3.30;;;;;;;16.28;61.67;100807.25;5133835;28;20524;-38
2021/05/11 07:31:36;;;;;;;5.68;2.90;;;;;;;16.29;61.50;100817.06;5133848;27;20031;-38
2021/05/11 07:34:04;;;;;;;7.68;3.15;;;;;;;16.44;61.30;100809.72;5134195;28;20061;-38
2021/05/11 07:36:30;;;;;;;7.65;2.78;;;;;;;16.45;60.82;100810.56;5134277;28;20381;-38
2021/05/11 07:38:55;;;;;;;4.88;2.88;;;;;;;16.41;60.91;100806.72;5134292;28;20071;-38
2021/05/11 07:41:21;;;;;;;5.53;2.90;;;;;;;16.53;60.17;100801.81;5134371;28;20355;-38
2021/05/11 07:43:51;;;;;;;6.82;2.90;;;;;;;16.54;59.73;100808.09;5133648;27;20636;-38
2021/05/11 08:05:13;;;;;;;5.30;2.20;;;;;;;16.56;58.91;100814.13;5133834;28;20428;-39
2021/05/11 08:15:35;;;;;;;4.60;2.25;;;;;;;16.51;58.52;100825.84;5134037;28;20042;-39
2021/05/11 08:27:30;;;;;;;8.13;2.38;;;;;;;16.30;60.22;100821.44;5137389;27;20039;-39
2021/05/11 08:28:36;;;;;;;5.90;2.28;;;;;;;16.32;59.33;100819.28;5137082;27;20146;-39
2021/05/11 08:31:02;;;;;;;4.03;2.10;;;;;;;16.31;60.14;100828.56;5137570;27;20046;-39
2021/05/11 08:33:27;;;;;;;6.23;2.70;;;;;;;16.27;59.17;100836.44;5137298;27;20308;-39
2021/05/11 08:35:52;;;;;;;6.68;2.33;;;;;;;16.26;59.23;100836.72;5137372;27;20284;-39
2021/05/11 08:38:18;;;;;;;5.45;2.35;;;;;;;16.26;59.45;100839.44;5137128;27;20114;-39
2021/05/11 08:40:43;;;;;;;4.75;2.50;;;;;;;16.21;59.49;100843.81;5137187;27;20027;-39
2021/05/11 08:43:28;;;;;;;5.97;2.47;;;;;;;16.23;60.91;100847.06;5137902;27;20031;-39
2021/05/11 08:45:55;;;;;;;6.75;3.15;;;;;;;16.19;61.06;100843.22;5137473;27;20031;-39
2021/05/11 08:48:21;;;;;;;4.38;2.72;;;;;;;16.23;60.58;100838.06;5136569;27;20037;-39
2021/05/11 08:50:50;;;;;;;4.90;2.20;;;;;;;16.29;60.85;100844.34;5137678;27;20031;-39
2021/05/11 09:04:53;;;;;;;4.75;1.98;;;;;;;16.42;61.38;100841.13;5093403;28;20127;-39
2021/05/11 09:07:39;;;;;;;4.35;1.88;;;;;;;16.50;60.46;100850.69;5093234;28;20032;-39
2021/05/11 09:24:00;;;;;;;7.05;2.63;;;;;;;16.50;63.66;100869.81;5093478;28;20395;-38
2021/05/11 09:29:33;;;;;;;5.37;2.60;;;;;;;16.58;63.06;100872.81;5093357;28;20197;-38
2021/05/11 09:32:40;;;;;;;7.82;2.97;;;;;;;16.62;62.83;100878.53;5092711;28;20266;-38
2021/05/11 09:45:04;;;;;;;6.25;2.70;;;;;;;16.57;63.42;100876.63;5092653;28;20036;-39
2021/05/11 10:48:27;;;;;;;6.22;3.00;;;;;;;18.43;57.20;100784.63;4991906;28;20121;-39
2021/05/11 10:50:52;;;;;;;5.93;2.78;;;;;;;18.65;56.96;100775.16;4992355;28;20045;-38
2021/05/11 10:53:43;;;;;;;7.32;2.85;;;;;;;18.98;56.32;100774.34;4991826;28;20112;-39
2021/05/11 10:56:24;;;;;;;5.32;2.72;;;;;;;19.29;54.88;100763.88;5031769;28;20029;-38
2021/05/11 11:04:26;;;;;;;6.55;2.80;;;;;;;19.59;52.12;100766.56;5134431;27;20444;-39
2021/05/11 11:06:58;;;;;;;6.72;3.10;;;;;;;19.62;52.67;100764.09;5134894;27;20080;-39
2021/05/11 11:09:28;;;;;;;6.70;2.70;;;;;;;19.43;55.16;100776.91;5134418;27;20355;-39
2021/05/11 11:11:54;;;;;;;5.57;2.05;;;;;;;19.24;52.24;100772.16;5134577;27;20075;-39
2021/05/11 11:14:20;;;;;;;4.80;2.10;;;;;;;19.08;51.65;100772.59;5134459;27;20027;-39
2021/05/11 11:16:46;;;;;;;;;;;;;;;19.32;54.07;100767.94;5134958;27;20047;-39
2021/05/11 11:19:13;;;;;;;4.78;2.60;;;;;;;18.91;52.33;100779.34;5134602;28;19969;-39
2021/05/11 11:24:36;;;;;;;4.47;2.45;;;;;;;18.81;54.54;100790.38;5134178;28;20035;-39
2021/05/11 11:27:02;;;;;;;6.10;2.60;;;;;;;18.71;54.16;100799.50;5134096;28;20389;-39
2021/05/11 11:29:28;;;;;;;;;;;;;;;18.83;54.72;100792.84;5135418;28;20019;-39
2021/05/11 11:31:54;;;;;;;5.40;2.55;;;;;;;18.46;54.90;100799.69;5134053;28;19914;-39
2021/05/11 11:34:21;;;;;;;4.97;2.42;;;;;;;18.36;54.04;100794.28;5134906;27;20076;-39
2021/05/11 11:36:48;;;;;;;4.63;2.40;;;;;;;18.30;53.45;100798.13;5134031;28;20109;-39
2021/05/11 11:39:18;;;;;;;5.70;2.80;;;;;;;18.16;55.34;100798.78;5134613;28;20066;-39
2021/05/11 11:41:45;;;;;;;4.47;2.30;;;;;;;18.15;54.98;100794.38;5134785;28;20430;-39
2021/05/11 11:44:14;;;;;;;5.18;2.28;;;;;;;18.19;55.40;100809.13;5133987;28;20023;-39
2021/05/11 11:46:39;;;;;;;6.07;2.47;;;;;;;18.16;53.16;100806.97;5133983;28;20084;-39
2021/05/11 11:49:10;;;;;;;3.75;1.85;;;;;;;18.20;53.33;100802.59;5134006;28;20031;-39
2021/05/11 11:51:36;;;;;;;5.40;2.08;;;;;;;18.25;54.16;100801.72;5133716;28;20526;-39
2021/05/11 11:59:34;;;;;;;4.55;1.77;;;;;;;18.19;53.31;100802.84;5138236;27;20064;-39
2021/05/11 12:02:02;;;;;;;4.60;2.10;;;;;;;18.14;54.25;100802.88;5138066;27;20027;-39
2021/05/11 12:04:28;;;;;;;5.72;2.20;;;;;;;18.24;53.51;100800.91;5138607;27;20080;-39
2021/05/11 12:06:54;;;;;;;4.90;2.40;;;;;;;18.22;55.28;100807.75;5137751;27;20023;-39
2021/05/11 12:09:20;;;;;;;;;;;;;;;18.43;54.93;100801.06;5137585;27;20047;-37
2021/05/11 12:11:45;;;;;;;3.97;1.83;;;;;;;18.44;53.80;100807.34;5137651;27;19907;-37
2021/05/11 12:14:13;;;;;;;;;;;;;;;18.57;54.26;100809.44;5138477;27;20035;-37
2021/05/11 12:16:45;;;;;;;4.22;2.03;;;;;;;18.50;53.26;100812.50;5138275;27;19964;-37
2021/05/11 12:19:15;;;;;;;5.68;2.28;;;;;;;18.53;53.31;100802.91;5138642;27;20483;-37
2021/05/11 12:21:52;;;;;;;4.43;2.33;;;;;;;18.54;53.37;100810.00;5137355;27;20521;-37
2021/05/11 12:24:22;;;;;;;7.97;2.47;;;;;;;18.52;51.72;100807.56;5137856;27;20058;-37
2021/05/11 12:26:47;;;;;;;3.95;2.22;;;;;;;18.54;53.20;100810.00;5136949;27;20023;-37
2021/05/11 12:29:17;;;;;;;6.97;2.40;;;;;;;18.47;52.44;100809.53;5137253;27;20378;-38
2021/05/11 12:31:45;;;;;;;5.50;2.22;;;;;;;18.63;52.93;100802.00;5136945;27;20035;-38
2021/05/11 12:34:14;;;;;;;5.13;2.42;;;;;;;18.76;53.15;100806.88;5137425;27;20102;-38
2021/05/11 12:36:44;;;;;;;4.47;2.30;;;;;;;18.76;53.17;100806.88;5137073;27;20027;-38
2021/05/11 12:39:34;;;;;;;5.10;2.33;;;;;;;18.80;52.56;100807.13;5137514;27;20142;-37
2021/05/11 12:42:19;;;;;;;6.00;3.00;;;;;;;18.99;52.62;100821.75;5137050;27;20034;-38
2021/05/11 12:44:46;;;;;;;4.95;2.00;;;;;;;19.04;51.65;100814.28;5137281;27;20019;-38
2021/05/11 12:47:15;;;;;;;6.35;2.33;;;;;;;19.13;51.15;100817.25;5136795;27;20031;-37
2021/05/11 12:49:40;;;;;;;5.88;2.38;;;;;;;19.11;50.74;100813.13;5137500;27;20120;-38
2021/05/11 12:52:08;;;;;;;;;;;;;;;19.32;52.27;100813.75;5137907;27;20448;-38
2021/05/11 12:54:43;;;;;;;3.63;2.17;;;;;;;19.19;51.47;100815.25;5137082;27;20331;-38
2021/05/11 12:59:51;;;;;;;;;;;;;;;19.37;51.89;100808.19;5137151;27;20038;-38
2021/05/11 13:16:57;;;;;;;9.43;2.50;;;;;;;19.14;50.32;100813.38;5072649;28;20036;-38
2021/05/11 13:27:58;;;;;;;6.00;2.60;;;;;;;18.93;50.66;100814.66;5073330;28;20047;-39
2021/05/11 13:30:34;;;;;;;5.65;2.00;;;;;;;18.88;50.62;100810.03;5072811;28;20040;-37
2021/05/11 13:35:28;;;;;;;4.93;2.22;;;;;;;18.80;51.63;100824.38;5073020;28;20036;-38
2021/05/11 13:37:53;;;;;;;;;;;;;;;18.98;51.58;100826.41;5072556;28;20032;-38
2021/05/11 13:40:18;;;;;;;8.95;2.25;;;;;;;18.73;50.94;100826.59;5072443;28;20419;-38
2021/05/11 13:42:44;;;;;;;;;;;;;;;18.90;51.69;100823.47;5073171;28;20174;-38
2021/05/11 13:45:09;;;;;;;5.13;2.17;;;;;;;18.62;51.68;100827.75;5072639;28;19908;-38
2021/05/11 13:47:35;;;;;;;;;;;;;;;18.78;51.91;100821.91;5072534;28;20064;-38
2021/05/11 13:50:01;;;;;;;5.20;1.60;;;;;;;18.69;51.42;100822.78;5072226;28;19994;-38
2021/05/11 13:52:27;;;;;;;5.70;2.25;;;;;;;18.68;51.51;100824.72;5085114;27;20046;-38
2021/05/11 13:55:04;;;;;;;;;;;;;;;18.81;51.82;100811.50;5136439;27;20110;-38
2021/05/11 14:02:59;;;;;;;5.80;2.42;;;;;;;18.69;50.99;100778.97;5136004;27;20041;-38
2021/05/11 14:05:24;;;;;;;;;;;;;;;18.86;51.74;100767.63;5134419;27;20027;-38
2021/05/11 14:07:50;;;;;;;10.82;2.38;;;;;;;18.72;51.12;100751.03;5135748;27;20370;-38
2021/05/11 14:10:16;;;;;;;;;;;;;;;18.90;51.89;100758.53;5135783;27;20030;-38
2021/05/11 14:12:41;;;;;;;4.35;1.92;;;;;;;18.94;51.19;100775.22;5135179;27;20351;-38
2021/05/11 14:15:07;;;;;;;;;;;;;;;19.14;51.70;100790.66;5136221;27;20019;-38
2021/05/11 14:17:33;;;;;;;5.57;1.95;;;;;;;18.98;50.33;100798.16;5134048;27;20005;-38
2021/05/11 14:19:58;;;;;;;;;;;;;;;19.08;49.33;100809.06;5134936;27;20023;-38
2021/05/11 14:22:25;;;;;;;6.50;1.98;;;;;;;18.92;51.62;100818.50;5135291;27;19907;-38
2021/05/11 14:24:50;;;;;;;6.15;1.80;;;;;;;18.83;51.81;100822.97;5135218;27;20123;-38
2021/05/11 14:27:16;;;;;;;;;;;;;;;18.94;51.47;100827.28;5135381;27;20077;-38
2021/05/11 14:29:43;;;;;;;4.38;1.60;;;;;;;18.64;50.85;100815.44;5135801;27;19911;-39
2021/05/11 14:32:09;;;;;;;4.45;1.80;;;;;;;18.60;50.92;100816.28;5134780;27;20027;-38
2021/05/11 14:34:34;;;;;;;;;;;;;;;18.70;51.42;100816.25;5135146;27;20034;-37
2021/05/11 14:36:59;;;;;;;5.03;1.70;;;;;;;18.56;51.17;100818.78;5134516;27;19917;-38
2021/05/11 14:39:25;;;;;;;;;;;;;;;18.67;51.37;100820.31;5135262;27;20256;-38
2021/05/11 14:41:54;;;;;;;3.70;1.88;;;;;;;18.66;50.87;100818.69;5134469;27;20431;-38
2021/05/11 14:44:24;;;;;;;5.07;1.65;;;;;;;18.65;50.05;100803.38;5134741;27;20027;-38
2021/05/11 14:46:50;;;;;;;3.63;1.33;;;;;;;18.71;49.24;100804.16;5134627;27;20027;-37
2021/05/11 14:49:17;;;;;;;5.10;1.20;;;;;;;18.85;49.09;100799.66;5134919;27;20023;-38
2021/05/11 14:51:42;;;;;;;5.13;1.30;;;;;;;18.93;49.12;100814.66;5134281;27;20086;-38
2021/05/11 14:54:07;;;;;;;;;;;;;;;19.08;49.43;100820.03;5135765;27;20056;-39
2021/05/11 14:56:38;;;;;;;5.22;1.67;;;;;;;18.94;49.83;100813.56;5134803;27;19964;-38
2021/05/11 14:59:03;;;;;;;4.47;1.83;;;;;;;18.77;49.38;100817.53;5134963;27;20034;-39
2021/05/11 15:01:29;;;;;;;;;;;;;;;18.91;49.73;100823.19;5134780;27;20031;-38
2021/05/11 15:03:54;;;;;;;3.05;1.30;;;;;;;18.85;49.85;100823.50;5134197;27;19918;-38
2021/05/11 15:06:19;;;;;;;;;;;;;;;18.99;50.07;100832.72;5134837;27;20531;-39
2021/05/11 15:08:45;;;;;;;3.67;1.53;;;;;;;18.96;49.44;100833.28;5134389;27;20384;-39
2021/05/11 15:11:10;;;;;;;;;;;;;;;18.99;50.38;100827.22;5134767;27;20151;-38
2021/05/11 15:13:36;;;;;;;9.48;4.90;;;;;;;18.77;55.22;100814.78;5134063;27;20378;-39
2021/05/11 15:16:06;;;;;;;;;;;;;;;18.96;55.32;100814.91;5134943;27;20106;-38
2021/05/11 15:18:31;;;;;;;7.00;5.47;;;;;;;18.92;57.41;100804.81;5134307;28;20331;-39
2021/05/11 15:20:56;;;;;;;;;;;;;;;18.99;55.68;100808.88;5134317;28;20037;-39
2021/05/11 15:23:22;;;;;;;10.00;5.83;;;;;;;18.80;56.52;100807.13;5134240;28;19913;-39
2021/05/11 15:25:47;;;;;;;;;;;;;;;19.07;55.75;100812.88;5134989;28;20031;-38
2021/05/11 15:28:12;;;;;;;9.73;6.13;;;;;;;19.02;57.66;100813.75;5134363;28;19907;-38
2021/05/11 15:30:38;;;;;;;;;;;;;;;19.12;55.81;100812.03;5135651;27;20337;-39
2021/05/11 15:33:04;;;;;;;10.20;6.25;;;;;;;18.90;56.65;100812.50;5138420;27;19914;-38
2021/05/11 15:35:34;;;;;;;9.05;6.60;;;;;;;18.73;57.85;100805.50;5138784;27;20027;-38
2021/05/11 15:38:02;;;;;;;10.15;6.28;;;;;;;18.59;56.39;100812.69;5138015;27;20386;-38
2021/05/11 15:40:33;;;;;;;10.82;6.20;;;;;;;18.46;57.59;100813.38;5138307;27;20110;-38
2021/05/11 15:42:59;;;;;;;10.85;6.75;;;;;;;18.26;57.47;100815.13;5138123;27;20534;-38
2021/05/11 15:45:25;;;;;;;;;;;;;;;18.45;56.90;100822.69;5138676;27;20106;-38